Athens, Alabama
Current Conditions -  °F | °C
As of 7:53 AM on Monday 22 Dec 2014 (Local Time) from KDCU Reporting Station
Haze Haze  
Wind Chill: 45°   Ceiling: 800
Heat Index: 49°   Visibility: 6mi
Dew Point: 46°   Wind: 8mph
Humidity: 90%   Direction: 130°SE
Pressure: 29.94"   Gusts: NA
Location:  34.8°N, 86.97°W
Report Text: KDCU 221353Z AUTO 13007KT 6SM BR OVC008 09/08 A2994 RMK AO2 SLP139 T00940078
Loading
Personal Weather Stations






























Interactive Weather Map New forecast layout! Learn more

10-Day Weather Forecast

Advertisements
Track Severe Weather on mobile